createdAt,value
2022-09-24T00:00:27.871Z,100.00
2022-09-24T00:02:56.682Z,100.00
2022-09-24T00:05:29.124Z,100.00
2022-09-24T00:07:57.595Z,100.00
2022-09-24T00:10:29.033Z,100.00
2022-09-24T00:12:59.872Z,100.00
2022-09-24T00:15:31.630Z,100.00
2022-09-24T00:18:06.596Z,100.00
2022-09-24T00:20:38.659Z,100.00
2022-09-24T00:23:09.477Z,100.00
2022-09-24T00:26:07.439Z,100.00
2022-09-24T00:28:36.345Z,100.00
2022-09-24T00:31:23.379Z,100.00
2022-09-24T00:33:52.563Z,100.00
2022-09-24T00:36:32.000Z,100.00
2022-09-24T00:39:05.374Z,100.00
2022-09-24T00:41:42.992Z,100.00
2022-09-24T00:44:46.288Z,100.00
2022-09-24T00:47:47.845Z,100.00
2022-09-24T00:50:32.510Z,100.00
2022-09-24T00:53:26.161Z,100.00
2022-09-24T00:55:58.735Z,100.00
2022-09-24T00:58:28.773Z,100.00
2022-09-24T01:01:06.300Z,100.00
2022-09-24T01:03:42.683Z,100.00
2022-09-24T01:06:16.950Z,100.00
2022-09-24T01:08:51.066Z,100.00
2022-09-24T01:12:35.048Z,100.00
2022-09-24T01:15:42.325Z,100.00
2022-09-24T01:18:41.694Z,100.00
2022-09-24T01:21:31.885Z,100.00
2022-09-24T01:24:26.576Z,100.00
2022-09-24T01:27:04.499Z,100.00
2022-09-24T01:29:42.692Z,100.00
2022-09-24T01:32:23.789Z,100.00
2022-09-24T01:35:04.333Z,100.00
2022-09-24T01:37:40.469Z,100.00
2022-09-24T01:40:15.696Z,100.00
2022-09-24T01:42:46.566Z,100.00
2022-09-24T01:45:16.631Z,100.00
2022-09-24T01:47:51.123Z,100.00
2022-09-24T01:50:26.266Z,100.00
2022-09-24T01:53:13.891Z,100.00
2022-09-24T01:55:50.960Z,100.00
2022-09-24T01:58:52.568Z,100.00
2022-09-24T02:02:05.200Z,100.00
2022-09-24T02:04:42.515Z,100.00
2022-09-24T02:07:46.128Z,100.00
2022-09-24T02:10:24.811Z,100.00
2022-09-24T02:13:08.626Z,100.00
2022-09-24T02:15:46.209Z,100.00
2022-09-24T02:18:25.636Z,100.00
2022-09-24T02:20:58.394Z,100.00
2022-09-24T02:23:45.518Z,100.00
2022-09-24T02:26:27.538Z,100.00
2022-09-24T02:28:59.573Z,100.00
2022-09-24T02:31:36.003Z,100.00
2022-09-24T02:34:23.369Z,100.00
2022-09-24T02:37:17.450Z,100.00
2022-09-24T02:39:51.462Z,100.00
2022-09-24T02:42:22.814Z,100.00
2022-09-24T02:44:52.816Z,100.00
2022-09-24T02:47:25.707Z,100.00
2022-09-24T02:49:57.508Z,100.00
2022-09-24T02:52:26.464Z,100.00
2022-09-24T02:54:59.567Z,100.00
2022-09-24T02:57:30.003Z,100.00
2022-09-24T03:00:01.692Z,100.00
2022-09-24T03:02:32.731Z,100.00
2022-09-24T03:05:02.160Z,100.00
2022-09-24T03:07:39.285Z,100.00
2022-09-24T03:10:09.387Z,100.00
2022-09-24T03:12:38.506Z,100.00
2022-09-24T03:15:10.549Z,100.00
2022-09-24T03:17:42.311Z,100.00
2022-09-24T03:20:12.896Z,100.00
2022-09-24T03:22:44.384Z,100.00
2022-09-24T03:25:13.036Z,100.00
2022-09-24T03:27:41.008Z,100.00
2022-09-24T03:30:33.991Z,100.00
2022-09-24T03:33:07.389Z,100.00
2022-09-24T03:35:37.822Z,100.00
2022-09-24T03:38:05.894Z,100.00
2022-09-24T03:40:36.668Z,100.00
2022-09-24T03:43:07.838Z,100.00
2022-09-24T03:45:39.421Z,100.00
2022-09-24T03:48:07.594Z,100.00
2022-09-24T03:50:39.538Z,100.00
2022-09-24T03:53:18.387Z,100.00
2022-09-24T03:55:56.720Z,100.00
2022-09-24T03:58:31.941Z,100.00
2022-09-24T04:01:02.567Z,100.00
2022-09-24T04:03:32.371Z,100.00
2022-09-24T04:06:06.069Z,100.00
2022-09-24T04:08:36.281Z,100.00
2022-09-24T04:11:06.939Z,100.00
2022-09-24T04:13:36.444Z,100.00
2022-09-24T04:16:07.624Z,100.00
2022-09-24T04:18:41.195Z,100.00
2022-09-24T04:21:16.671Z,100.00
2022-09-24T04:23:47.447Z,100.00
2022-09-24T04:26:24.633Z,100.00
2022-09-24T04:28:52.413Z,100.00
2022-09-24T04:31:29.475Z,100.00
2022-09-24T04:34:00.009Z,100.00
2022-09-24T04:36:30.272Z,100.00
2022-09-24T04:39:03.755Z,100.00
2022-09-24T04:41:31.934Z,100.00
2022-09-24T04:44:02.161Z,100.00
2022-09-24T04:46:34.695Z,100.00
2022-09-24T04:49:09.634Z,100.00
2022-09-24T04:51:37.321Z,100.00
2022-09-24T04:54:08.685Z,100.00
2022-09-24T04:56:39.396Z,100.00
2022-09-24T04:59:12.115Z,100.00
2022-09-24T05:01:40.479Z,100.00
2022-09-24T05:04:14.159Z,100.00
2022-09-24T05:06:45.120Z,100.00
2022-09-24T05:09:13.490Z,100.00
2022-09-24T05:11:44.304Z,100.00
2022-09-24T05:14:12.385Z,100.00
2022-09-24T05:16:48.651Z,100.00
2022-09-24T05:19:19.385Z,100.00
2022-09-24T05:21:48.681Z,100.00
2022-09-24T05:24:20.528Z,100.00
2022-09-24T05:27:09.309Z,100.00
2022-09-24T05:29:46.537Z,100.00
2022-09-24T05:32:22.651Z,100.00
2022-09-24T05:34:51.542Z,100.00
2022-09-24T05:37:20.756Z,100.00
2022-09-24T05:39:48.500Z,100.00
2022-09-24T05:42:16.780Z,100.00
2022-09-24T05:44:51.950Z,100.00
2022-09-24T05:47:20.395Z,100.00
2022-09-24T05:49:48.774Z,100.00
2022-09-24T05:52:19.230Z,100.00
2022-09-24T05:54:47.293Z,100.00
2022-09-24T05:57:16.028Z,100.00
2022-09-24T05:59:46.382Z,100.00
2022-09-24T06:02:15.184Z,100.00
2022-09-24T06:04:43.143Z,100.00
2022-09-24T06:07:12.038Z,100.00
2022-09-24T06:09:39.913Z,100.00
2022-09-24T06:12:19.978Z,100.00
2022-09-24T06:14:51.102Z,100.00
2022-09-24T06:17:18.967Z,100.00
2022-09-24T06:19:49.615Z,100.00
2022-09-24T06:22:26.278Z,100.00
2022-09-24T06:25:02.567Z,100.00
2022-09-24T06:27:34.093Z,100.00
2022-09-24T06:30:08.500Z,100.00
2022-09-24T06:32:40.363Z,100.00
2022-09-24T06:35:22.891Z,100.00
2022-09-24T06:37:54.144Z,100.00
2022-09-24T06:40:26.672Z,100.00
2022-09-24T06:42:57.770Z,100.00
2022-09-24T06:45:34.023Z,100.00
2022-09-24T06:48:11.102Z,100.00
2022-09-24T06:50:46.634Z,100.00
2022-09-24T06:53:18.612Z,100.00
2022-09-24T06:55:47.302Z,100.00
2022-09-24T06:58:23.285Z,100.00
2022-09-24T07:01:04.898Z,100.00
2022-09-24T07:03:41.222Z,100.00
2022-09-24T07:06:15.531Z,99.75
2022-09-24T07:08:45.347Z,99.95
2022-09-24T07:11:14.418Z,99.81
2022-09-24T07:13:45.028Z,100.00
2022-09-24T07:16:12.900Z,100.00
2022-09-24T07:18:50.638Z,100.00
2022-09-24T07:21:22.288Z,100.00
2022-09-24T07:23:58.329Z,100.00
2022-09-24T07:26:29.724Z,100.00
2022-09-24T07:28:57.654Z,100.00
2022-09-24T07:31:25.792Z,100.00
2022-09-24T07:33:53.688Z,100.00
2022-09-24T07:36:24.762Z,100.00
2022-09-24T07:38:52.576Z,100.00
2022-09-24T07:41:20.685Z,99.18
2022-09-24T07:43:50.698Z,98.43
2022-09-24T07:46:20.450Z,97.53
2022-09-24T07:48:51.311Z,96.69
2022-09-24T07:51:29.028Z,95.95
2022-09-24T07:53:59.456Z,94.92
2022-09-24T07:56:27.435Z,96.14
2022-09-24T07:59:00.112Z,97.44
2022-09-24T08:01:28.408Z,98.59
2022-09-24T08:04:00.267Z,99.48
2022-09-24T08:06:35.746Z,97.27
2022-09-24T08:09:07.216Z,96.77
2022-09-24T08:11:41.724Z,98.15
2022-09-24T08:14:14.771Z,99.01
2022-09-24T08:16:42.874Z,99.96
2022-09-24T08:19:14.506Z,99.39
2022-09-24T08:21:44.718Z,99.16
2022-09-24T08:24:23.510Z,99.16
2022-09-24T08:26:51.564Z,100.00
2022-09-24T08:29:19.519Z,100.00
2022-09-24T08:31:48.041Z,100.00
2022-09-24T08:34:19.105Z,100.00
2022-09-24T08:36:50.431Z,99.70
2022-09-24T08:39:25.853Z,97.34
2022-09-24T08:42:39.875Z,97.36
2022-09-24T08:45:29.040Z,95.30
2022-09-24T08:48:20.843Z,94.84
2022-09-24T08:51:18.999Z,92.90
2022-09-24T08:54:00.532Z,92.08
2022-09-24T08:56:34.593Z,91.02
2022-09-24T08:59:23.711Z,93.18
2022-09-24T09:02:02.206Z,92.14
2022-09-24T09:05:19.556Z,92.96
2022-09-24T09:08:33.883Z,94.29
2022-09-24T09:11:03.466Z,92.75
2022-09-24T09:13:45.280Z,90.02
2022-09-24T09:16:28.514Z,88.29
2022-09-24T09:19:05.201Z,88.32
2022-09-24T09:21:47.369Z,86.87
2022-09-24T09:24:23.769Z,86.12
2022-09-24T09:26:59.179Z,87.68
2022-09-24T09:29:34.410Z,89.08
2022-09-24T09:32:33.537Z,89.97
2022-09-24T09:35:41.580Z,89.28
2022-09-24T09:38:45.801Z,88.52
2022-09-24T09:41:32.835Z,85.80
2022-09-24T09:44:14.817Z,84.19
2022-09-24T09:46:53.288Z,84.16
2022-09-24T09:49:23.494Z,84.39
2022-09-24T09:51:55.566Z,83.87
2022-09-24T09:54:41.448Z,83.73
2022-09-24T09:57:23.004Z,83.76
2022-09-24T09:59:57.230Z,83.80
2022-09-24T10:02:39.926Z,83.77
2022-09-24T10:05:26.350Z,83.27
2022-09-24T10:08:03.006Z,84.19
2022-09-24T10:10:31.421Z,83.90
2022-09-24T10:13:19.815Z,84.29
2022-09-24T10:16:00.873Z,82.52
2022-09-24T10:18:47.386Z,81.96
2022-09-24T10:21:31.311Z,83.74
2022-09-24T10:24:12.494Z,86.13
2022-09-24T10:26:45.555Z,83.63
2022-09-24T10:29:44.937Z,86.21
2022-09-24T10:32:30.440Z,86.58
2022-09-24T10:35:07.201Z,86.23
2022-09-24T10:37:35.988Z,87.60
2022-09-24T10:40:24.494Z,86.69
2022-09-24T10:43:03.384Z,85.90
2022-09-24T10:45:51.325Z,85.23
2022-09-24T10:48:38.120Z,85.08
2022-09-24T10:51:47.471Z,85.09
2022-09-24T10:54:59.040Z,84.52
2022-09-24T10:57:49.948Z,85.34
2022-09-24T11:00:27.245Z,86.65
2022-09-24T11:03:32.801Z,89.40
2022-09-24T11:06:19.932Z,87.68
2022-09-24T11:09:12.659Z,87.70
2022-09-24T11:12:38.092Z,86.82
2022-09-24T11:15:48.935Z,89.11
2022-09-24T11:18:56.686Z,86.18
2022-09-24T11:21:58.210Z,86.04
2022-09-24T11:25:04.294Z,84.29
2022-09-24T11:27:44.255Z,83.58
2022-09-24T11:30:30.856Z,83.57
2022-09-24T11:33:26.894Z,83.42
2022-09-24T11:36:16.572Z,82.33
2022-09-24T11:39:15.542Z,84.16
2022-09-24T11:42:29.471Z,84.67
2022-09-24T11:45:38.256Z,85.51
2022-09-24T11:48:38.359Z,85.42
2022-09-24T11:51:38.460Z,85.52
2022-09-24T11:54:26.105Z,83.04
2022-09-24T11:57:09.521Z,83.26
2022-09-24T12:00:19.169Z,82.29
2022-09-24T12:03:04.279Z,82.76
2022-09-24T12:05:47.559Z,83.07
2022-09-24T12:08:40.322Z,82.43
2022-09-24T12:11:32.148Z,81.29
2022-09-24T12:14:15.495Z,80.31
2022-09-24T12:16:48.162Z,80.44
2022-09-24T12:19:37.229Z,79.32
2022-09-24T12:22:10.824Z,78.23
2022-09-24T12:25:03.878Z,80.99
2022-09-24T12:27:37.940Z,78.88
2022-09-24T12:30:42.540Z,79.45
2022-09-24T12:33:33.022Z,78.18
2022-09-24T12:36:28.553Z,77.61
2022-09-24T12:39:16.901Z,78.34
2022-09-24T12:42:01.142Z,77.75
2022-09-24T12:44:52.470Z,78.10
2022-09-24T12:47:33.507Z,76.99
2022-09-24T12:50:16.249Z,77.58
2022-09-24T12:52:45.762Z,77.37
2022-09-24T12:55:29.623Z,76.79
2022-09-24T12:58:42.828Z,77.88
2022-09-24T13:01:27.407Z,77.66
2022-09-24T13:04:22.697Z,78.91
2022-09-24T13:07:28.290Z,79.96
2022-09-24T13:09:58.365Z,76.42
2022-09-24T13:12:43.213Z,76.52
2022-09-24T13:15:45.113Z,74.41
2022-09-24T13:18:20.420Z,73.90
2022-09-24T13:21:19.643Z,73.09
2022-09-24T13:23:53.143Z,73.64
2022-09-24T13:26:36.470Z,74.39
2022-09-24T13:29:24.308Z,73.27
2022-09-24T13:32:00.682Z,73.09
2022-09-24T13:34:35.259Z,73.87
2022-09-24T13:37:11.172Z,74.32
2022-09-24T13:39:51.542Z,74.28
2022-09-24T13:42:46.598Z,71.58
2022-09-24T13:45:26.336Z,71.85
2022-09-24T13:48:06.694Z,73.93
2022-09-24T13:50:50.245Z,73.78
2022-09-24T13:53:28.840Z,72.67
2022-09-24T13:56:19.572Z,73.12
2022-09-24T13:59:09.608Z,73.69
2022-09-24T14:01:44.091Z,72.47
2022-09-24T14:04:23.302Z,72.88
2022-09-24T14:06:57.491Z,73.60
2022-09-24T14:09:40.228Z,74.22
2022-09-24T14:12:22.744Z,73.04
2022-09-24T14:14:57.887Z,72.01
2022-09-24T14:17:33.870Z,70.76
2022-09-24T14:20:02.127Z,70.62
2022-09-24T14:22:35.406Z,70.18
2022-09-24T14:25:21.028Z,69.89
2022-09-24T14:27:55.310Z,68.96
2022-09-24T14:30:29.057Z,68.29
2022-09-24T14:33:17.456Z,69.84
2022-09-24T14:36:11.746Z,69.28
2022-09-24T14:39:05.524Z,69.82
2022-09-24T14:41:38.913Z,68.65
2022-09-24T14:44:35.811Z,68.82
2022-09-24T14:47:21.799Z,69.23
2022-09-24T14:49:53.370Z,70.59
2022-09-24T14:52:38.520Z,70.73
2022-09-24T14:55:22.332Z,69.94
2022-09-24T14:57:56.831Z,70.71
2022-09-24T15:00:28.749Z,69.58
2022-09-24T15:03:15.543Z,71.31
2022-09-24T15:06:01.407Z,71.02
2022-09-24T15:08:30.210Z,71.50
2022-09-24T15:11:16.654Z,69.39
2022-09-24T15:13:58.742Z,68.96
2022-09-24T15:16:34.099Z,69.30
2022-09-24T15:19:27.218Z,68.70
2022-09-24T15:21:57.878Z,69.67
2022-09-24T15:24:26.767Z,69.80
2022-09-24T15:27:06.822Z,69.08
2022-09-24T15:29:35.000Z,67.95
2022-09-24T15:32:06.314Z,67.66
2022-09-24T15:34:35.852Z,68.09
2022-09-24T15:37:03.971Z,67.27
2022-09-24T15:39:32.397Z,67.91
2022-09-24T15:42:02.783Z,66.76
2022-09-24T15:44:34.312Z,67.84
2022-09-24T15:47:02.722Z,67.47
2022-09-24T15:49:34.115Z,68.48
2022-09-24T15:52:24.589Z,68.57
2022-09-24T15:55:04.326Z,68.63
2022-09-24T15:57:36.733Z,69.15
2022-09-24T16:00:05.467Z,69.29
2022-09-24T16:02:39.628Z,70.80
2022-09-24T16:05:16.454Z,72.08
2022-09-24T16:07:45.022Z,72.94
2022-09-24T16:10:15.788Z,73.13
2022-09-24T16:12:43.932Z,73.11
2022-09-24T16:15:16.323Z,73.37
2022-09-24T16:17:51.786Z,74.47
2022-09-24T16:20:19.936Z,75.34
2022-09-24T16:22:47.908Z,75.73
2022-09-24T16:25:16.084Z,76.54
2022-09-24T16:27:44.685Z,76.89
2022-09-24T16:30:15.008Z,77.69
2022-09-24T16:32:46.287Z,77.81
2022-09-24T16:35:16.522Z,79.21
2022-09-24T16:37:50.585Z,80.66
2022-09-24T16:40:21.981Z,81.81
2022-09-24T16:42:50.400Z,82.79
2022-09-24T16:45:18.286Z,84.74
2022-09-24T16:47:46.030Z,86.38
2022-09-24T16:50:17.018Z,87.09
2022-09-24T16:52:50.471Z,86.48
2022-09-24T16:55:18.523Z,87.43
2022-09-24T16:57:49.178Z,88.15
2022-09-24T17:00:24.025Z,86.84
2022-09-24T17:02:53.033Z,88.23
2022-09-24T17:05:21.579Z,87.09
2022-09-24T17:07:55.822Z,86.47
2022-09-24T17:10:27.564Z,87.35
2022-09-24T17:12:56.806Z,87.14
2022-09-24T17:15:25.357Z,88.05
2022-09-24T17:17:55.012Z,91.21
2022-09-24T17:20:31.843Z,94.98
2022-09-24T17:23:00.676Z,97.39
2022-09-24T17:25:29.702Z,97.35
2022-09-24T17:27:57.561Z,98.82
2022-09-24T17:30:39.254Z,100.00
2022-09-24T17:33:25.312Z,99.27
2022-09-24T17:36:05.997Z,99.50
2022-09-24T17:38:37.237Z,99.28
2022-09-24T17:41:15.242Z,100.00
2022-09-24T17:43:44.149Z,100.00
2022-09-24T17:46:23.399Z,100.00
2022-09-24T17:48:58.346Z,100.00
2022-09-24T17:51:35.515Z,100.00
2022-09-24T17:54:16.280Z,100.00
2022-09-24T17:56:47.016Z,100.00
2022-09-24T17:59:22.880Z,100.00
2022-09-24T18:01:57.401Z,100.00
2022-09-24T18:04:27.213Z,100.00
2022-09-24T18:06:56.440Z,99.93
2022-09-24T18:09:25.607Z,97.81
2022-09-24T18:11:54.912Z,98.02
2022-09-24T18:14:28.309Z,98.30
2022-09-24T18:17:00.584Z,100.00
2022-09-24T18:19:29.589Z,100.00
2022-09-24T18:22:07.979Z,100.00
2022-09-24T18:24:38.866Z,100.00
2022-09-24T18:27:10.389Z,100.00
2022-09-24T18:29:41.022Z,100.00
2022-09-24T18:32:14.899Z,100.00
2022-09-24T18:34:45.768Z,100.00
2022-09-24T18:37:20.187Z,100.00
2022-09-24T18:39:53.920Z,100.00
2022-09-24T18:42:31.565Z,100.00
2022-09-24T18:45:09.888Z,100.00
2022-09-24T18:47:41.432Z,100.00
2022-09-24T18:50:21.816Z,100.00
2022-09-24T18:52:50.705Z,100.00
2022-09-24T18:55:22.545Z,100.00
2022-09-24T18:57:55.943Z,100.00
2022-09-24T19:00:45.944Z,100.00
2022-09-24T19:03:14.642Z,100.00
2022-09-24T19:05:56.324Z,100.00
2022-09-24T19:08:37.787Z,100.00
2022-09-24T19:11:14.471Z,100.00
2022-09-24T19:13:55.253Z,100.00
2022-09-24T19:16:24.988Z,100.00
2022-09-24T19:18:59.020Z,100.00
2022-09-24T19:21:32.888Z,100.00
2022-09-24T19:24:03.189Z,100.00
2022-09-24T19:26:41.536Z,100.00
2022-09-24T19:29:11.414Z,100.00
2022-09-24T19:31:48.308Z,100.00
2022-09-24T19:34:17.304Z,100.00
2022-09-24T19:36:45.787Z,100.00
2022-09-24T19:39:21.514Z,100.00
2022-09-24T19:41:53.537Z,100.00
2022-09-24T19:44:24.420Z,100.00
2022-09-24T19:46:59.370Z,100.00
2022-09-24T19:49:30.500Z,100.00
2022-09-24T19:52:00.617Z,100.00
2022-09-24T19:54:30.738Z,100.00
2022-09-24T19:56:58.086Z,100.00
2022-09-24T19:59:25.952Z,100.00
2022-09-24T20:01:56.413Z,100.00
2022-09-24T20:04:24.850Z,100.00
2022-09-24T20:07:01.172Z,100.00
2022-09-24T20:09:32.946Z,100.00
2022-09-24T20:12:02.899Z,100.00
2022-09-24T20:14:37.234Z,100.00
2022-09-24T20:17:07.974Z,100.00
2022-09-24T20:19:48.149Z,100.00
2022-09-24T20:22:28.864Z,100.00
2022-09-24T20:24:59.519Z,100.00
2022-09-24T20:27:49.310Z,100.00
2022-09-24T20:30:25.866Z,100.00
2022-09-24T20:32:54.796Z,100.00
2022-09-24T20:35:26.405Z,100.00
2022-09-24T20:37:56.423Z,100.00
2022-09-24T20:40:30.089Z,100.00
2022-09-24T20:43:10.098Z,100.00
2022-09-24T20:45:41.736Z,100.00
2022-09-24T20:48:15.399Z,100.00
2022-09-24T20:50:46.682Z,100.00
2022-09-24T20:53:15.972Z,100.00
2022-09-24T20:55:44.672Z,100.00
2022-09-24T20:58:22.089Z,100.00
2022-09-24T21:00:55.933Z,100.00
2022-09-24T21:03:42.775Z,100.00
2022-09-24T21:06:18.428Z,100.00
2022-09-24T21:08:48.364Z,100.00
2022-09-24T21:11:30.709Z,100.00
2022-09-24T21:14:06.360Z,100.00
2022-09-24T21:16:38.980Z,100.00
2022-09-24T21:19:08.472Z,100.00
2022-09-24T21:21:39.845Z,100.00
2022-09-24T21:24:17.529Z,100.00
2022-09-24T21:26:47.191Z,100.00
2022-09-24T21:29:24.911Z,100.00
2022-09-24T21:31:53.562Z,100.00
2022-09-24T21:34:22.527Z,100.00
2022-09-24T21:36:55.318Z,100.00
2022-09-24T21:39:29.941Z,100.00
2022-09-24T21:42:00.292Z,100.00
2022-09-24T21:44:36.957Z,100.00
2022-09-24T21:47:13.164Z,100.00
2022-09-24T21:49:44.561Z,100.00
2022-09-24T21:52:17.333Z,100.00
2022-09-24T21:54:54.126Z,100.00
2022-09-24T21:57:25.531Z,100.00
2022-09-24T22:00:07.431Z,100.00
2022-09-24T22:02:46.337Z,100.00
2022-09-24T22:05:19.348Z,100.00
2022-09-24T22:07:50.376Z,100.00
2022-09-24T22:10:18.551Z,100.00
2022-09-24T22:12:48.497Z,100.00
2022-09-24T22:15:20.308Z,100.00
2022-09-24T22:17:55.395Z,100.00
2022-09-24T22:20:24.229Z,100.00
2022-09-24T22:22:56.549Z,100.00
2022-09-24T22:25:31.568Z,100.00
2022-09-24T22:28:04.451Z,100.00
2022-09-24T22:30:39.634Z,100.00
2022-09-24T22:33:09.629Z,100.00
2022-09-24T22:35:51.727Z,100.00
2022-09-24T22:38:23.618Z,100.00
2022-09-24T22:40:55.115Z,100.00
2022-09-24T22:43:25.443Z,100.00
2022-09-24T22:46:09.700Z,100.00
2022-09-24T22:48:38.302Z,100.00
2022-09-24T22:51:11.554Z,100.00
2022-09-24T22:53:42.234Z,100.00
2022-09-24T22:56:22.564Z,100.00
2022-09-24T22:58:59.559Z,100.00
2022-09-24T23:01:45.756Z,100.00
2022-09-24T23:04:16.475Z,100.00
2022-09-24T23:06:44.527Z,100.00
2022-09-24T23:09:16.327Z,100.00
2022-09-24T23:11:45.910Z,100.00
2022-09-24T23:14:18.386Z,100.00
2022-09-24T23:16:48.674Z,100.00
2022-09-24T23:19:22.109Z,100.00
2022-09-24T23:21:49.767Z,100.00
2022-09-24T23:24:20.090Z,100.00
2022-09-24T23:26:50.514Z,100.00
2022-09-24T23:29:18.477Z,100.00
2022-09-24T23:31:46.343Z,100.00
2022-09-24T23:34:15.436Z,100.00
2022-09-24T23:36:46.505Z,100.00
2022-09-24T23:39:21.653Z,100.00
2022-09-24T23:41:52.988Z,100.00
2022-09-24T23:44:24.518Z,100.00
2022-09-24T23:47:04.762Z,100.00
2022-09-24T23:49:37.285Z,100.00
2022-09-24T23:52:08.942Z,100.00
2022-09-24T23:54:39.710Z,100.00
2022-09-24T23:57:13.361Z,100.00
2022-09-24T23:59:46.275Z,100.00
